createdAt,value
2018-09-18T00:01:50.528Z,12.30
2018-09-18T00:04:18.447Z,12.03
2018-09-18T00:06:46.335Z,13.20
2018-09-18T00:09:14.245Z,11.60
2018-09-18T00:11:42.142Z,13.03
2018-09-18T00:14:10.060Z,12.00
2018-09-18T00:16:37.991Z,12.00
2018-09-18T00:19:05.880Z,12.50
2018-09-18T00:21:33.793Z,12.27
2018-09-18T00:24:02.622Z,12.00
2018-09-18T00:26:30.582Z,11.77
2018-09-18T00:28:58.480Z,11.90
2018-09-18T00:31:26.423Z,12.80
2018-09-18T00:33:54.394Z,12.20
2018-09-18T00:36:22.261Z,12.53
2018-09-18T00:38:50.153Z,13.13
2018-09-18T00:41:18.056Z,13.33
2018-09-18T00:43:45.947Z,13.20
2018-09-18T00:46:13.910Z,12.67
2018-09-18T00:55:46.824Z,11.47
2018-09-18T00:58:14.640Z,11.23
2018-09-18T01:00:42.636Z,12.27
2018-09-18T01:03:10.493Z,12.53
2018-09-18T01:05:38.434Z,13.00
2018-09-18T01:08:06.379Z,12.37
2018-09-18T01:10:34.252Z,11.73
2018-09-18T01:13:02.230Z,12.13
2018-09-18T01:15:30.197Z,11.53
2018-09-18T01:17:58.133Z,12.20
2018-09-18T01:20:26.119Z,11.93
2018-09-18T01:22:53.993Z,12.47
2018-09-18T01:25:21.932Z,11.27
2018-09-18T01:27:49.789Z,12.47
2018-09-18T01:30:17.649Z,12.20
2018-09-18T01:32:45.540Z,11.90
2018-09-18T01:35:13.398Z,12.00
2018-09-18T01:37:41.273Z,12.77
2018-09-18T01:40:09.125Z,12.27
2018-09-18T01:42:37.016Z,12.27
2018-09-18T01:45:05.189Z,11.60
2018-09-18T01:47:33.124Z,12.20
2018-09-18T01:50:01.051Z,11.00
2018-09-18T01:52:28.986Z,12.20
2018-09-18T01:54:56.942Z,11.20
2018-09-18T01:57:24.768Z,12.07
2018-09-18T01:59:52.697Z,11.70
2018-09-18T02:02:20.656Z,11.87
2018-09-18T02:04:48.596Z,11.73
2018-09-18T02:07:16.464Z,11.73
2018-09-18T02:09:44.333Z,11.93
2018-09-18T02:12:12.204Z,11.07
2018-09-18T02:14:40.086Z,12.00
2018-09-18T02:17:07.932Z,11.70
2018-09-18T02:19:35.867Z,11.77
2018-09-18T02:22:03.791Z,11.00
2018-09-18T02:24:31.708Z,11.40
2018-09-18T02:26:59.607Z,11.97
2018-09-18T02:29:27.483Z,11.93
2018-09-18T02:31:55.336Z,12.23
2018-09-18T02:34:23.185Z,11.50
2018-09-18T02:36:51.099Z,11.17
2018-09-18T02:39:19.059Z,11.70
2018-09-18T02:41:46.945Z,11.10
2018-09-18T02:44:14.886Z,11.20
2018-09-18T02:46:42.757Z,11.70
2018-09-18T02:49:10.643Z,11.73
2018-09-18T02:51:38.599Z,11.73
2018-09-18T02:54:06.504Z,11.37
2018-09-18T02:56:34.482Z,11.00
2018-09-18T02:59:02.377Z,11.40
2018-09-18T03:01:30.257Z,10.90
2018-09-18T03:03:58.194Z,11.73
2018-09-18T03:06:26.124Z,11.00
2018-09-18T03:08:54.067Z,12.53
2018-09-18T03:11:22.007Z,11.67
2018-09-18T03:13:49.860Z,11.60
2018-09-18T03:16:17.789Z,11.70
2018-09-18T03:18:45.704Z,11.20
2018-09-18T03:21:13.580Z,11.77
2018-09-18T03:23:41.518Z,12.10
2018-09-18T03:26:09.697Z,12.10
2018-09-18T03:28:37.724Z,12.37
2018-09-18T03:31:05.562Z,12.60
2018-09-18T03:33:33.480Z,13.30
2018-09-18T03:36:01.427Z,12.40
2018-09-18T03:38:29.275Z,11.30
2018-09-18T03:40:57.199Z,12.80
2018-09-18T03:43:25.140Z,12.60
2018-09-18T03:45:52.992Z,11.87
2018-09-18T03:48:20.844Z,12.30
2018-09-18T03:50:48.757Z,13.63
2018-09-18T03:53:16.739Z,13.47
2018-09-18T03:55:44.711Z,13.30
2018-09-18T03:58:12.580Z,12.27
2018-09-18T04:00:40.524Z,14.20
2018-09-18T04:03:09.365Z,13.00
2018-09-18T04:05:37.307Z,12.20
2018-09-18T04:08:05.280Z,12.97
2018-09-18T04:10:33.196Z,14.03
2018-09-18T04:13:01.049Z,12.30
2018-09-18T04:15:28.977Z,12.30
2018-09-18T04:17:57.281Z,12.57
2018-09-18T04:20:25.162Z,12.80
2018-09-18T04:22:53.057Z,13.00
2018-09-18T04:25:21.005Z,14.00
2018-09-18T04:27:48.906Z,13.63
2018-09-18T04:30:16.897Z,13.33
2018-09-18T04:32:44.799Z,13.73
2018-09-18T04:35:12.721Z,13.77
2018-09-18T04:37:40.592Z,14.27
2018-09-18T04:40:08.497Z,13.93
2018-09-18T04:42:36.439Z,13.87
2018-09-18T04:45:04.442Z,13.70
2018-09-18T04:47:32.305Z,13.50
2018-09-18T04:50:00.218Z,13.90
2018-09-18T04:52:28.126Z,13.57
2018-09-18T04:54:56.060Z,13.40
2018-09-18T04:57:23.874Z,13.43
2018-09-18T04:59:51.752Z,13.60
2018-09-18T05:02:19.615Z,14.43
2018-09-18T05:04:47.460Z,14.47
2018-09-18T05:07:15.391Z,14.07
2018-09-18T05:09:43.362Z,14.37
2018-09-18T05:12:11.313Z,13.80
2018-09-18T05:14:39.215Z,13.20
2018-09-18T05:17:07.123Z,13.13
2018-09-18T05:19:34.977Z,12.67
2018-09-18T05:22:02.825Z,13.80
2018-09-18T05:24:30.761Z,13.13
2018-09-18T05:26:58.685Z,13.40
2018-09-18T05:29:26.585Z,13.30
2018-09-18T05:31:54.449Z,13.43
2018-09-18T05:34:22.286Z,12.80
2018-09-18T05:36:50.159Z,12.93
2018-09-18T05:39:18.059Z,13.17
2018-09-18T05:41:45.996Z,13.60
2018-09-18T05:44:13.884Z,12.60
2018-09-18T05:46:41.770Z,13.03
2018-09-18T05:49:09.688Z,12.63
2018-09-18T05:51:37.578Z,12.93
2018-09-18T05:54:05.503Z,13.03
2018-09-18T05:56:33.405Z,13.03
2018-09-18T05:59:01.350Z,14.00
2018-09-18T06:01:29.241Z,12.77
2018-09-18T06:03:57.162Z,13.40
2018-09-18T06:06:26.071Z,14.13
2018-09-18T06:08:53.931Z,13.63
2018-09-18T06:11:21.849Z,13.10
2018-09-18T06:13:49.776Z,14.03
2018-09-18T06:16:17.741Z,13.70
2018-09-18T06:18:45.703Z,13.40
2018-09-18T06:21:13.620Z,13.60
2018-09-18T06:23:41.476Z,13.07
2018-09-18T06:26:09.355Z,14.07
2018-09-18T06:28:37.332Z,13.40
2018-09-18T06:31:05.300Z,12.33
2018-09-18T06:33:34.155Z,13.27
2018-09-18T06:36:02.066Z,13.43
2018-09-18T06:38:29.979Z,14.00
2018-09-18T06:40:57.906Z,13.60
2018-09-18T06:43:25.782Z,13.07
2018-09-18T06:45:53.687Z,13.40
2018-09-18T06:48:21.631Z,14.03
2018-09-18T06:50:49.558Z,13.10
2018-09-18T06:53:17.425Z,13.70
2018-09-18T06:55:45.269Z,13.40
2018-09-18T06:58:13.186Z,14.17
2018-09-18T07:00:41.118Z,13.60
2018-09-18T07:03:09.043Z,13.30
2018-09-18T07:05:37.026Z,14.07
2018-09-18T07:08:04.965Z,13.73
2018-09-18T07:10:32.905Z,13.27
2018-09-18T07:13:00.844Z,13.20
2018-09-18T07:15:28.734Z,14.00
2018-09-18T07:17:56.682Z,13.33
2018-09-18T07:20:24.520Z,12.73
2018-09-18T07:22:52.482Z,12.97
2018-09-18T07:25:20.381Z,12.87
2018-09-18T07:27:48.318Z,13.00
2018-09-18T07:30:16.294Z,12.03
2018-09-18T07:32:44.162Z,12.27
2018-09-18T07:35:12.076Z,11.60
2018-09-18T07:37:39.936Z,12.30
2018-09-18T07:40:07.826Z,11.97
2018-09-18T07:42:36.681Z,12.90
2018-09-18T07:45:04.573Z,12.53
2018-09-18T07:47:32.441Z,12.47
2018-09-18T07:50:00.295Z,12.90
2018-09-18T07:52:28.182Z,12.40
2018-09-18T07:54:56.115Z,12.53
2018-09-18T07:57:23.976Z,12.20
2018-09-18T07:59:51.889Z,11.80
2018-09-18T08:02:19.837Z,12.40
2018-09-18T08:04:47.689Z,11.60
2018-09-18T08:07:15.576Z,11.63
2018-09-18T08:09:43.457Z,11.93
2018-09-18T08:12:11.630Z,11.07
2018-09-18T08:14:39.618Z,11.37
2018-09-18T08:17:07.516Z,10.07
2018-09-18T08:19:35.578Z,12.50
2018-09-18T08:22:03.458Z,11.57
2018-09-18T08:24:31.362Z,11.20
2018-09-18T08:26:59.210Z,10.50
2018-09-18T08:29:27.210Z,11.30
2018-09-18T08:31:55.105Z,11.10
2018-09-18T08:34:23.362Z,9.80
2018-09-18T08:36:52.235Z,11.63
2018-09-18T08:39:21.167Z,10.60
2018-09-18T08:41:49.102Z,11.17
2018-09-18T08:44:17.066Z,10.33
2018-09-18T08:46:44.996Z,10.47
2018-09-18T08:49:12.880Z,10.23
2018-09-18T08:51:40.875Z,9.90
2018-09-18T08:54:08.746Z,10.73
2018-09-18T08:56:36.736Z,10.60
2018-09-18T08:59:04.670Z,10.27
2018-09-18T09:01:32.613Z,10.20
2018-09-18T09:04:00.538Z,10.40
2018-09-18T09:06:28.511Z,11.10
2018-09-18T09:08:56.505Z,11.23
2018-09-18T09:13:32.524Z,10.60
2018-09-18T09:16:00.494Z,10.83
2018-09-18T09:18:28.553Z,10.63
2018-09-18T09:20:56.485Z,11.00
2018-09-18T09:23:24.374Z,11.65
2018-09-18T09:25:52.267Z,11.53
2018-09-18T09:28:21.209Z,11.20
2018-09-18T09:30:49.129Z,10.57
2018-09-18T09:33:17.138Z,10.20
2018-09-18T09:35:45.092Z,10.93
2018-09-18T09:38:13.018Z,10.80
2018-09-18T09:40:40.962Z,10.80
2018-09-18T09:43:08.880Z,10.73
2018-09-18T09:45:36.800Z,11.33
2018-09-18T09:48:04.746Z,10.13
2018-09-18T09:50:32.612Z,10.73
2018-09-18T09:53:00.523Z,10.73
2018-09-18T09:55:28.409Z,11.20
2018-09-18T09:57:56.358Z,10.87
2018-09-18T10:00:29.881Z,11.00
2018-09-18T10:02:57.817Z,10.80
2018-09-18T10:05:25.660Z,11.40
2018-09-18T10:07:53.608Z,11.30
2018-09-18T10:10:21.560Z,11.97
2018-09-18T10:12:49.502Z,11.00
2018-09-18T10:15:17.445Z,11.23
2018-09-18T10:17:45.365Z,10.80
2018-09-18T10:20:13.345Z,10.73
2018-09-18T10:22:41.249Z,9.33
2018-09-18T10:25:09.231Z,9.70
2018-09-18T10:27:37.064Z,9.63
2018-09-18T10:30:04.988Z,9.73
2018-09-18T10:32:32.927Z,9.30
2018-09-18T10:35:00.809Z,8.60
2018-09-18T10:37:28.703Z,8.50
2018-09-18T10:39:56.694Z,8.50
2018-09-18T10:42:24.698Z,7.50
2018-09-18T10:44:52.546Z,7.87
2018-09-18T10:47:20.503Z,7.70
2018-09-18T10:49:48.420Z,8.30
2018-09-18T10:52:16.309Z,7.30
2018-09-18T10:54:44.187Z,7.20
2018-09-18T10:57:12.165Z,7.80
2018-09-18T11:34:02.816Z,7.00
2018-09-18T11:36:30.705Z,7.10
2018-09-18T11:38:58.601Z,6.90
2018-09-18T11:41:27.038Z,6.47
2018-09-18T11:43:54.995Z,6.93
2018-09-18T11:46:22.915Z,6.23
2018-09-18T11:48:50.833Z,6.73
2018-09-18T11:51:19.093Z,6.23
2018-09-18T11:53:46.910Z,6.37
2018-09-18T11:56:14.857Z,6.77
2018-09-18T11:58:42.763Z,6.50
2018-09-18T12:01:10.681Z,6.13
2018-09-18T12:03:38.657Z,6.30
2018-09-18T12:06:06.502Z,6.47
2018-09-18T12:08:34.532Z,6.67
2018-09-18T12:11:02.393Z,5.87
2018-09-18T12:13:30.293Z,6.53
2018-09-18T12:15:58.270Z,6.20
2018-09-18T12:18:26.194Z,6.30
2018-09-18T12:20:54.157Z,6.20
2018-09-18T12:23:22.091Z,6.20
2018-09-18T12:25:49.961Z,6.30
2018-09-18T12:28:17.914Z,6.50
2018-09-18T12:30:45.886Z,6.50
2018-09-18T12:33:13.760Z,6.30
2018-09-18T12:35:41.756Z,6.03
2018-09-18T13:05:08.069Z,6.80
2018-09-18T13:10:03.098Z,7.00
2018-09-18T17:10:23.749Z,7.90
2018-09-18T17:17:45.994Z,6.90
2018-09-18T17:20:13.945Z,7.20
2018-09-18T17:42:19.105Z,8.10
2018-09-18T17:44:47.019Z,7.90
2018-09-18T17:52:09.142Z,7.73
2018-09-18T17:59:33.398Z,7.40
2018-09-18T18:56:00.882Z,9.73
2018-09-18T22:29:43.171Z,12.85
